Time;durP1;ratioP1;P1;durP2;ratioP2;P2;SDS_P1;SDS_P2;PMS_P1;PMS_P2;Temp;Humidity;BMP_temperature;BMP_pressure;BME280_temperature;BME280_humidity;BME280_pressure;Samples;Min_cycle;Max_cycle;Signal;HPM_P1;HPM_P2
2023/12/01 00:01:11;;;;;;;16.67;9.83;;;;;;;-1.32;64.43;100205.88;4992642;28;97115;-50
2023/12/01 00:03:37;;;;;;;18.47;9.77;;;;;;;-1.37;64.09;100203.00;4986129;28;100380;-50
2023/12/01 00:06:03;;;;;;;18.90;10.60;;;;;;;-1.39;64.26;100206.16;4999478;28;97108;-51
2023/12/01 00:08:28;;;;;;;17.97;9.30;;;;;;;-1.38;64.62;100202.22;4999898;28;97973;-51
2023/12/01 00:10:54;;;;;;;14.27;8.97;;;;;;;-1.31;64.54;100204.69;4986808;28;97207;-50
2023/12/01 00:13:19;;;;;;;13.43;9.40;;;;;;;-1.30;64.35;100213.59;4977831;28;98761;-50
2023/12/01 00:15:45;;;;;;;18.57;10.30;;;;;;;-1.29;64.57;100221.28;4995928;28;109177;-50
2023/12/01 00:18:10;;;;;;;16.57;9.47;;;;;;;-1.28;64.37;100213.91;5001553;28;96969;-50
2023/12/01 00:20:35;;;;;;;20.40;10.13;;;;;;;-1.27;64.42;100212.69;4999486;28;96938;-51
2023/12/01 00:23:01;;;;;;;21.53;10.63;;;;;;;-1.25;64.34;100221.88;4980808;28;98018;-51
2023/12/01 00:25:26;;;;;;;17.70;9.53;;;;;;;-1.24;64.31;100217.22;4982605;28;98105;-50
2023/12/01 00:27:51;;;;;;;15.77;9.23;;;;;;;-1.21;64.40;100217.06;5001931;28;97628;-51
2023/12/01 00:30:17;;;;;;;17.80;10.03;;;;;;;-1.22;64.05;100217.53;4987381;28;96878;-50
2023/12/01 00:32:42;;;;;;;17.37;10.17;;;;;;;-1.25;64.24;100213.00;4983954;28;99506;-51
2023/12/01 00:35:08;;;;;;;15.37;10.10;;;;;;;-1.23;64.43;100216.78;4985453;28;96754;-50
2023/12/01 00:37:33;;;;;;;16.97;9.80;;;;;;;-1.23;64.10;100216.78;4999554;28;97301;-51
2023/12/01 00:39:59;;;;;;;17.33;8.87;;;;;;;-1.29;64.10;100215.09;4985468;28;96840;-50
2023/12/01 00:42:25;;;;;;;20.77;10.37;;;;;;;-1.31;64.20;100217.47;4996772;28;98120;-51
2023/12/01 00:44:51;;;;;;;15.47;9.63;;;;;;;-1.33;64.31;100214.47;4996605;28;97232;-51
2023/12/01 00:47:16;;;;;;;20.73;10.30;;;;;;;-1.35;64.14;100219.59;4997526;28;96921;-50
2023/12/01 00:49:41;;;;;;;20.30;10.27;;;;;;;-1.38;64.28;100223.19;4988598;28;97422;-50
2023/12/01 00:52:06;;;;;;;19.73;10.17;;;;;;;-1.37;64.37;100230.88;4997563;28;98715;-51
2023/12/01 00:54:32;;;;;;;19.40;10.20;;;;;;;-1.32;64.32;100232.28;5000721;28;97146;-50
2023/12/01 00:56:58;;;;;;;18.83;9.93;;;;;;;-1.29;64.12;100225.94;4998797;28;96910;-50
2023/12/01 00:59:24;;;;;;;17.37;10.13;;;;;;;-1.30;64.20;100227.91;4997374;28;96738;-51
2023/12/01 01:01:49;;;;;;;17.63;9.90;;;;;;;-1.25;64.06;100227.31;4996674;28;96769;-51
2023/12/01 01:04:14;;;;;;;18.70;10.60;;;;;;;-1.25;63.96;100224.59;5000050;28;97276;-50
2023/12/01 01:06:40;;;;;;;19.27;10.17;;;;;;;-1.23;64.12;100230.34;4997703;28;96728;-51
2023/12/01 01:09:05;;;;;;;19.13;10.73;;;;;;;-1.22;64.02;100229.16;5000490;28;97369;-51
2023/12/01 01:11:31;;;;;;;23.70;10.57;;;;;;;-1.17;63.95;100227.81;4997799;28;98358;-50
2023/12/01 01:13:56;;;;;;;17.60;9.50;;;;;;;-1.15;64.10;100228.13;4996980;28;97090;-51
2023/12/01 01:16:22;;;;;;;20.37;10.63;;;;;;;-1.18;63.92;100229.00;4999439;28;97168;-51
2023/12/01 01:18:47;;;;;;;23.70;10.23;;;;;;;-1.29;63.74;100236.78;4996369;28;97311;-51
2023/12/01 01:21:13;;;;;;;17.60;9.40;;;;;;;-1.28;64.25;100235.59;4997846;28;96920;-51
2023/12/01 01:23:38;;;;;;;17.80;10.30;;;;;;;-1.25;64.00;100234.69;4997044;28;96982;-50
2023/12/01 01:26:04;;;;;;;18.43;8.60;;;;;;;-1.24;64.10;100242.41;4980579;28;97215;-51
2023/12/01 01:28:29;;;;;;;16.70;9.33;;;;;;;-1.24;64.02;100236.22;4998416;28;96934;-51
2023/12/01 01:30:55;;;;;;;16.83;9.77;;;;;;;-1.21;64.11;100235.34;5001372;28;97372;-51
2023/12/01 01:33:20;;;;;;;15.43;9.03;;;;;;;-1.16;64.21;100244.88;4994541;28;97273;-50
2023/12/01 01:35:46;;;;;;;15.67;8.73;;;;;;;-1.14;64.16;100235.06;4996057;28;97341;-51
2023/12/01 01:38:11;;;;;;;16.20;9.60;;;;;;;-1.11;63.94;100242.31;4982798;28;97264;-50
2023/12/01 01:40:36;;;;;;;16.77;9.90;;;;;;;-1.08;64.12;100238.72;5000565;28;105409;-51
2023/12/01 01:43:02;;;;;;;16.43;9.93;;;;;;;-1.07;64.19;100251.06;4984601;28;99270;-51
2023/12/01 01:45:27;;;;;;;17.00;9.70;;;;;;;-1.07;63.78;100255.75;4997925;28;96611;-51
2023/12/01 01:47:53;;;;;;;15.80;9.90;;;;;;;-1.17;63.77;100257.66;4999934;28;96997;-50
2023/12/01 01:50:22;;;;;;;18.10;10.27;;;;;;;-1.24;63.71;100260.66;4999854;28;97956;-51
2023/12/01 01:52:48;;;;;;;17.10;9.63;;;;;;;-1.30;63.74;100262.44;4998700;28;97440;-50
2023/12/01 01:55:14;;;;;;;18.50;10.70;;;;;;;-1.36;63.88;100266.91;4998497;28;96719;-50
2023/12/01 01:57:44;;;;;;;19.17;10.67;;;;;;;-1.40;63.85;100267.03;4996747;28;96801;-51
2023/12/01 02:00:10;;;;;;;18.37;10.77;;;;;;;-1.43;64.03;100269.88;4995857;28;97577;-50
2023/12/01 02:02:36;;;;;;;20.60;9.90;;;;;;;-1.49;63.79;100271.66;4998701;28;97307;-51
2023/12/01 02:05:02;;;;;;;20.37;10.57;;;;;;;-1.52;63.71;100269.81;4986382;28;97150;-51
2023/12/01 02:07:27;;;;;;;23.57;11.40;;;;;;;-1.62;64.08;100273.69;4969206;28;96988;-51
2023/12/01 02:09:54;;;;;;;21.43;11.60;;;;;;;-1.70;63.83;100273.16;5020311;22;97194;-54
2023/12/01 02:12:20;;;;;;;19.40;11.00;;;;;;;-1.74;64.11;100279.91;5027301;27;98325;-55
2023/12/01 02:14:45;;;;;;;21.53;10.07;;;;;;;-1.70;64.20;100280.53;5028767;27;96715;-54
2023/12/01 02:17:11;;;;;;;16.40;9.70;;;;;;;-1.69;64.30;100285.53;5028760;27;97239;-54
2023/12/01 02:19:36;;;;;;;19.23;10.50;;;;;;;-1.74;63.58;100288.03;5027728;27;96875;-54
2023/12/01 02:22:01;;;;;;;17.57;9.30;;;;;;;-1.76;64.06;100290.44;5027255;27;98291;-54
2023/12/01 02:24:26;;;;;;;20.87;10.80;;;;;;;-1.84;64.07;100289.91;5028417;27;97058;-54
2023/12/01 02:26:52;;;;;;;18.83;10.63;;;;;;;-1.84;63.86;100289.19;5029080;27;103566;-54
2023/12/01 02:29:17;;;;;;;27.13;10.60;;;;;;;-1.94;63.46;100296.47;5029905;27;98480;-54
2023/12/01 02:31:42;;;;;;;20.43;10.20;;;;;;;-2.10;63.63;100297.38;5029624;27;97112;-54
2023/12/01 02:34:08;;;;;;;19.33;9.77;;;;;;;-2.12;64.08;100297.06;5030427;27;99788;-54
2023/12/01 02:36:33;;;;;;;18.83;10.67;;;;;;;-2.07;64.47;100295.75;5026083;27;97546;-54
2023/12/01 02:38:58;;;;;;;17.40;10.20;;;;;;;-1.99;64.32;100299.72;5028666;27;102478;-54
2023/12/01 02:41:24;;;;;;;22.77;10.50;;;;;;;-2.04;63.92;100303.03;5028505;27;97408;-54
2023/12/01 02:43:49;;;;;;;18.90;10.50;;;;;;;-2.11;63.84;100306.72;5028176;27;97152;-54
2023/12/01 02:46:15;;;;;;;21.50;10.50;;;;;;;-2.15;63.98;100305.31;5030378;27;96919;-54
2023/12/01 02:48:40;;;;;;;20.77;10.73;;;;;;;-2.22;63.89;100309.03;5028526;27;98555;-54
2023/12/01 02:51:07;;;;;;;21.63;11.00;;;;;;;-2.25;64.14;100309.13;5028280;27;96998;-54
2023/12/01 02:53:33;;;;;;;19.80;9.57;;;;;;;-2.35;64.24;100311.00;5027529;27;96970;-54
2023/12/01 02:55:59;;;;;;;22.37;11.40;;;;;;;-2.39;64.21;100315.78;5029050;27;97346;-54
2023/12/01 02:58:24;;;;;;;20.53;11.23;;;;;;;-2.42;64.55;100319.34;5026349;27;97074;-54
2023/12/01 03:00:50;;;;;;;17.63;10.20;;;;;;;-2.42;64.24;100318.59;5030579;27;97739;-54
2023/12/01 03:03:15;;;;;;;20.93;10.53;;;;;;;-2.43;64.40;100323.22;5025764;27;97267;-54
2023/12/01 03:05:40;;;;;;;21.93;9.80;;;;;;;-2.47;64.48;100319.13;5026229;27;96950;-54
2023/12/01 03:08:06;;;;;;;25.20;9.63;;;;;;;-2.49;64.05;100311.44;5027638;27;97234;-54
2023/12/01 03:10:31;;;;;;;16.90;8.90;;;;;;;-2.52;64.48;100331.28;5026794;27;98462;-54
2023/12/01 03:12:56;;;;;;;16.80;9.20;;;;;;;-2.53;64.15;100312.75;5030971;27;97312;-54
2023/12/01 03:15:22;;;;;;;17.20;8.67;;;;;;;-2.57;64.35;100314.81;5028425;27;96885;-54
2023/12/01 03:17:48;;;;;;;17.07;8.80;;;;;;;-2.58;64.44;100314.03;5027760;27;103208;-54
2023/12/01 03:20:16;;;;;;;15.37;8.70;;;;;;;-2.56;64.40;100327.16;5029209;27;97847;-54
2023/12/01 03:22:44;;;;;;;16.10;8.83;;;;;;;-2.59;64.51;100326.06;5027561;27;97087;-54
2023/12/01 03:25:12;;;;;;;18.47;9.50;;;;;;;-2.55;64.39;100317.84;5029742;27;97338;-54
2023/12/01 03:27:42;;;;;;;17.60;8.60;;;;;;;-2.52;64.31;100328.56;5030169;27;96807;-54
2023/12/01 03:30:15;;;;;;;22.10;10.43;;;;;;;-2.56;64.40;100324.47;5029553;27;98428;-54
2023/12/01 03:32:51;;;;;;;21.47;9.90;;;;;;;-2.56;64.48;100319.78;5037641;27;96745;-54
2023/12/01 03:35:20;;;;;;;20.33;9.60;;;;;;;-2.52;64.46;100327.81;5035602;27;96664;-54
2023/12/01 03:37:46;;;;;;;22.27;10.10;;;;;;;-2.48;64.34;100321.09;5031935;27;97201;-54
2023/12/01 03:40:12;;;;;;;16.50;8.70;;;;;;;-2.40;64.50;100325.09;5030770;27;97254;-54
2023/12/01 03:42:41;;;;;;;20.23;9.90;;;;;;;-2.38;64.09;100328.13;5031866;27;97416;-54
2023/12/01 03:45:07;;;;;;;18.00;9.83;;;;;;;-2.42;64.09;100324.75;5031704;27;97243;-54
2023/12/01 03:47:35;;;;;;;17.27;9.30;;;;;;;-2.38;64.29;100332.75;5031825;27;97301;-54
2023/12/01 03:50:02;;;;;;;18.13;9.60;;;;;;;-2.37;64.13;100318.03;5031557;27;98630;-54
2023/12/01 03:52:27;;;;;;;20.30;10.10;;;;;;;-2.47;64.28;100309.03;5031849;27;96807;-54
2023/12/01 03:54:52;;;;;;;20.07;9.40;;;;;;;-2.51;64.30;100313.81;5031844;27;96912;-54
2023/12/01 03:57:18;;;;;;;20.63;10.00;;;;;;;-2.55;64.46;100324.00;5030040;27;111051;-54
2023/12/01 03:59:43;;;;;;;15.87;8.50;;;;;;;-2.51;64.52;100318.47;5032223;27;108585;-54
2023/12/01 04:02:08;;;;;;;15.13;9.03;;;;;;;-2.44;64.77;100323.69;5031556;27;98064;-54
2023/12/01 04:04:34;;;;;;;15.87;9.10;;;;;;;-2.40;64.47;100330.50;5032897;27;96988;-54
2023/12/01 04:06:59;;;;;;;16.50;8.70;;;;;;;-2.36;64.33;100330.38;5031594;27;106686;-54
2023/12/01 04:09:24;;;;;;;19.17;9.50;;;;;;;-2.33;64.29;100330.28;5026390;27;97049;-54
2023/12/01 04:11:54;;;;;;;19.57;9.33;;;;;;;-2.28;64.58;100329.72;5030348;27;97370;-54
2023/12/01 04:14:19;;;;;;;15.50;8.50;;;;;;;-2.21;64.66;100334.19;5031698;27;97176;-54
2023/12/01 04:16:46;;;;;;;15.90;8.53;;;;;;;-2.14;64.29;100325.78;5029803;27;97496;-54
2023/12/01 04:19:12;;;;;;;18.53;9.27;;;;;;;-2.12;64.28;100332.28;5031803;27;97165;-54
2023/12/01 04:21:37;;;;;;;17.47;9.10;;;;;;;-2.15;63.94;100329.72;5030316;27;102340;-54
2023/12/01 04:24:02;;;;;;;20.13;9.23;;;;;;;-2.16;64.10;100328.94;5027741;27;98683;-54
2023/12/01 04:26:28;;;;;;;18.80;9.30;;;;;;;-2.20;64.03;100328.31;5029422;27;98698;-54
2023/12/01 04:28:53;;;;;;;18.60;9.50;;;;;;;-2.19;64.33;100329.06;5031242;27;98151;-54
2023/12/01 04:31:19;;;;;;;17.40;9.27;;;;;;;-2.15;64.08;100329.72;5029688;27;96864;-54
2023/12/01 04:33:44;;;;;;;20.67;10.60;;;;;;;-2.17;63.95;100332.84;5032347;27;96962;-54
2023/12/01 04:36:11;;;;;;;18.60;9.37;;;;;;;-2.18;64.22;100334.03;5030184;27;105015;-54
2023/12/01 04:38:37;;;;;;;18.17;9.40;;;;;;;-2.16;64.40;100331.66;5028376;27;97029;-54
2023/12/01 04:41:03;;;;;;;17.73;9.80;;;;;;;-2.18;64.25;100322.44;5029294;27;97155;-54
2023/12/01 04:43:28;;;;;;;18.57;10.00;;;;;;;-2.16;64.13;100330.91;5031386;27;97054;-54
2023/12/01 04:45:53;;;;;;;17.87;10.00;;;;;;;-2.14;64.11;100329.25;5032286;27;97239;-54
2023/12/01 04:48:19;;;;;;;18.40;9.13;;;;;;;-2.16;64.27;100328.94;5029106;27;97127;-54
2023/12/01 04:50:47;;;;;;;18.40;9.80;;;;;;;-2.15;63.83;100325.06;5030671;27;97174;-54
2023/12/01 04:53:12;;;;;;;19.63;10.03;;;;;;;-2.15;64.09;100335.13;5032650;27;97199;-54
2023/12/01 04:55:38;;;;;;;18.83;9.60;;;;;;;-2.12;64.35;100334.25;5030442;27;97635;-54
2023/12/01 04:58:04;;;;;;;17.30;9.67;;;;;;;-2.11;64.00;100341.19;5033333;27;97469;-54
2023/12/01 05:00:29;;;;;;;16.10;9.70;;;;;;;-2.06;64.23;100338.66;5030902;27;97058;-54
2023/12/01 05:02:55;;;;;;;18.67;10.00;;;;;;;-2.00;64.48;100342.38;5031161;27;97244;-54
2023/12/01 05:05:22;;;;;;;19.83;9.70;;;;;;;-1.90;64.27;100345.13;5029269;27;97584;-54
2023/12/01 05:07:50;;;;;;;17.53;9.27;;;;;;;-1.84;64.45;100346.13;5029377;27;96806;-54
2023/12/01 05:10:20;;;;;;;22.17;11.13;;;;;;;-1.78;64.24;100347.06;5030241;27;97470;-54
2023/12/01 05:12:50;;;;;;;19.80;9.57;;;;;;;-1.74;64.30;100350.41;5029360;27;97062;-54
2023/12/01 05:15:17;;;;;;;17.33;10.23;;;;;;;-1.68;64.28;100351.38;5026581;27;97764;-54
2023/12/01 05:17:44;;;;;;;21.17;9.63;;;;;;;-1.64;64.01;100357.41;5030788;27;97458;-54
2023/12/01 05:20:15;;;;;;;18.80;10.20;;;;;;;-1.61;63.70;100353.84;5027036;27;96834;-54
2023/12/01 05:22:51;;;;;;;20.30;10.23;;;;;;;-1.59;63.76;100362.28;5028456;27;97234;-54
2023/12/01 05:25:18;;;;;;;22.20;11.57;;;;;;;-1.62;63.50;100361.22;5031429;27;96945;-54
2023/12/01 05:27:49;;;;;;;19.37;10.43;;;;;;;-1.66;63.99;100370.66;5029931;27;97241;-54
2023/12/01 05:30:15;;;;;;;17.27;9.43;;;;;;;-1.67;63.80;100371.88;5028748;27;96702;-54
2023/12/01 05:32:42;;;;;;;18.70;9.77;;;;;;;-1.69;64.01;100369.59;5033220;27;96736;-54
2023/12/01 05:35:11;;;;;;;19.73;10.53;;;;;;;-1.66;64.16;100376.09;5027833;27;97560;-54
2023/12/01 05:37:39;;;;;;;21.53;10.80;;;;;;;-1.71;63.49;100371.25;5026886;27;97808;-54
2023/12/01 05:40:09;;;;;;;19.93;10.37;;;;;;;-1.75;63.82;100373.31;5027804;27;97523;-54
2023/12/01 05:42:35;;;;;;;22.67;11.50;;;;;;;-1.80;63.51;100376.56;5030895;27;97182;-54
2023/12/01 05:45:01;;;;;;;21.17;10.30;;;;;;;-1.84;63.76;100373.22;5028642;27;97504;-54
2023/12/01 05:47:26;;;;;;;18.87;9.50;;;;;;;-1.86;63.60;100381.03;5027352;27;96915;-54
2023/12/01 05:49:51;;;;;;;21.90;10.27;;;;;;;-1.85;63.71;100390.69;5032054;27;100501;-54
2023/12/01 05:52:17;;;;;;;19.40;10.27;;;;;;;-1.82;64.18;100385.16;5030444;27;98214;-54
2023/12/01 05:54:42;;;;;;;18.73;10.10;;;;;;;-1.77;63.77;100389.25;5028980;27;109130;-54
2023/12/01 05:57:07;;;;;;;19.10;10.83;;;;;;;-1.77;63.99;100406.28;5029587;27;98578;-54
2023/12/01 05:59:33;;;;;;;21.87;11.37;;;;;;;-1.72;64.03;100391.41;5031759;27;96929;-54
2023/12/01 06:01:59;;;;;;;17.20;9.77;;;;;;;-1.69;63.81;100387.81;5034320;27;97082;-54
2023/12/01 06:04:25;;;;;;;20.00;10.50;;;;;;;-1.69;64.01;100393.25;5029557;27;96693;-54
2023/12/01 06:06:51;;;;;;;19.37;10.00;;;;;;;-1.70;63.76;100392.50;5030032;27;97757;-54
2023/12/01 06:09:17;;;;;;;22.93;11.00;;;;;;;-1.66;63.86;100389.66;5030122;27;97353;-54
2023/12/01 06:11:45;;;;;;;17.40;9.97;;;;;;;-1.62;63.84;100401.88;5031174;27;96808;-54
2023/12/01 06:14:11;;;;;;;17.70;10.63;;;;;;;-1.58;63.95;100399.06;5026359;27;98620;-54
2023/12/01 06:16:36;;;;;;;19.90;9.97;;;;;;;-1.64;63.59;100392.66;5030567;27;98215;-54
2023/12/01 06:19:02;;;;;;;18.40;10.00;;;;;;;-1.65;63.65;100405.50;5030327;27;97100;-54
2023/12/01 06:21:27;;;;;;;19.47;10.93;;;;;;;-1.68;63.78;100406.38;5030935;27;97296;-54
2023/12/01 06:23:52;;;;;;;17.00;9.50;;;;;;;-1.66;63.80;100411.34;5030837;27;97124;-54
2023/12/01 06:26:18;;;;;;;15.90;9.17;;;;;;;-1.69;63.56;100404.09;5029556;27;109993;-54
2023/12/01 06:28:44;;;;;;;16.90;9.40;;;;;;;-1.75;63.52;100405.84;5031289;27;96701;-54
2023/12/01 06:31:10;;;;;;;17.60;9.80;;;;;;;-1.76;63.52;100407.81;5032521;27;96843;-54
2023/12/01 06:33:35;;;;;;;15.87;9.07;;;;;;;-1.82;63.35;100406.09;5029662;27;98823;-54
2023/12/01 06:36:00;;;;;;;15.40;8.33;;;;;;;-1.87;63.44;100410.09;5030390;27;96928;-54
2023/12/01 06:38:26;;;;;;;15.00;8.80;;;;;;;-1.88;63.68;100407.84;5030990;27;97024;-54
2023/12/01 06:40:51;;;;;;;16.87;9.03;;;;;;;-1.87;63.89;100410.09;5032222;27;98832;-54
2023/12/01 06:43:16;;;;;;;14.37;8.70;;;;;;;-1.85;63.78;100415.06;5027585;27;113970;-54
2023/12/01 06:45:42;;;;;;;16.27;9.23;;;;;;;-1.83;63.83;100413.44;5033129;27;97011;-54
2023/12/01 06:48:07;;;;;;;15.00;8.57;;;;;;;-1.82;63.56;100412.28;5031249;27;96776;-54
2023/12/01 06:50:33;;;;;;;16.97;8.87;;;;;;;-1.79;63.47;100416.03;5030254;27;97378;-54
2023/12/01 06:53:00;;;;;;;13.83;8.47;;;;;;;-1.80;63.50;100425.38;5027066;27;97106;-54
2023/12/01 06:55:25;;;;;;;14.77;8.70;;;;;;;-1.81;63.65;100424.63;5029744;27;98656;-54
2023/12/01 06:57:50;;;;;;;14.97;8.60;;;;;;;-1.81;63.72;100435.47;5029820;27;97011;-54
2023/12/01 07:02:56;;;;;;;14.37;8.50;;;;;;;-1.82;63.43;100435.91;5031179;27;98005;-54
2023/12/01 07:05:22;;;;;;;13.60;8.33;;;;;;;-1.84;63.48;100446.44;5034469;27;98732;-54
2023/12/01 07:07:50;;;;;;;17.43;8.90;;;;;;;-1.90;63.49;100442.72;5029711;27;96752;-54
2023/12/01 07:10:15;;;;;;;14.77;9.50;;;;;;;-1.93;63.47;100446.31;5033489;27;97008;-54
2023/12/01 07:12:40;;;;;;;13.30;7.73;;;;;;;-1.96;63.59;100453.38;5032653;27;103342;-54
2023/12/01 07:15:11;;;;;;;13.97;8.10;;;;;;;-1.97;63.44;100463.44;5031246;27;97033;-54
2023/12/01 07:17:38;;;;;;;14.20;8.90;;;;;;;-2.00;63.68;100467.03;5033341;27;97312;-54
2023/12/01 07:20:13;;;;;;;13.90;8.67;;;;;;;-1.96;63.42;100461.50;5034675;27;96930;-54
2023/12/01 07:22:40;;;;;;;16.47;9.20;;;;;;;-1.99;63.50;100463.13;5032632;27;97630;-54
2023/12/01 07:25:10;;;;;;;13.73;8.53;;;;;;;-2.00;63.59;100471.69;5030769;27;97559;-54
2023/12/01 07:27:38;;;;;;;17.13;9.40;;;;;;;-2.00;63.53;100471.69;5034913;27;97169;-54
2023/12/01 07:30:05;;;;;;;15.47;8.53;;;;;;;-2.06;63.32;100473.44;5033574;27;97227;-54
2023/12/01 07:32:30;;;;;;;15.90;9.70;;;;;;;-2.04;63.29;100471.06;5035467;27;98514;-54
2023/12/01 07:34:55;;;;;;;14.83;8.23;;;;;;;-2.06;63.27;100474.19;5035435;27;97075;-54
2023/12/01 07:37:21;;;;;;;12.17;8.40;;;;;;;-2.06;63.64;100481.56;5033674;27;97237;-54
2023/12/01 07:39:46;;;;;;;13.13;8.27;;;;;;;-2.08;63.60;100486.66;5030143;27;98307;-54
2023/12/01 07:42:11;;;;;;;12.13;7.53;;;;;;;-2.11;63.39;100480.16;5033392;27;101100;-54
2023/12/01 07:44:37;;;;;;;12.10;8.00;;;;;;;-2.13;63.31;100485.25;5034625;27;96660;-54
2023/12/01 07:47:05;;;;;;;14.10;8.00;;;;;;;-2.15;63.71;100487.66;5036718;27;97292;-54
2023/12/01 07:49:30;;;;;;;12.37;7.80;;;;;;;-2.11;63.67;100499.13;5033180;27;96811;-53
2023/12/01 07:51:56;;;;;;;10.93;7.13;;;;;;;-2.09;63.33;100501.41;5035968;27;97193;-54
2023/12/01 07:54:22;;;;;;;10.33;7.70;;;;;;;-2.07;63.71;100510.63;5034274;27;97150;-54
2023/12/01 07:56:47;;;;;;;13.43;7.90;;;;;;;-2.04;63.63;100514.41;5033024;27;96825;-54
2023/12/01 07:59:12;;;;;;;11.50;7.00;;;;;;;-2.10;63.41;100513.41;5033458;27;97001;-54
2023/12/01 08:01:38;;;;;;;12.30;8.27;;;;;;;-2.13;63.23;100523.19;5029671;27;97490;-54
2023/12/01 08:04:03;;;;;;;11.07;7.50;;;;;;;-2.13;63.57;100520.50;5033771;27;104074;-53
2023/12/01 08:06:28;;;;;;;11.47;7.40;;;;;;;-2.13;63.40;100517.78;5034234;27;96905;-54
2023/12/01 08:08:54;;;;;;;12.07;6.87;;;;;;;-2.09;63.78;100521.13;5033800;27;97110;-54
2023/12/01 08:11:19;;;;;;;11.40;7.80;;;;;;;-2.03;63.60;100522.09;5032541;27;96997;-54
2023/12/01 08:13:44;;;;;;;10.57;7.27;;;;;;;-1.98;63.71;100528.94;5033689;27;97261;-54
2023/12/01 08:16:10;;;;;;;10.30;7.17;;;;;;;-1.94;63.65;100534.25;5032358;22;97362;-53
2023/12/01 08:18:35;;;;;;;10.20;6.50;;;;;;;-1.97;63.17;100525.03;5005116;28;100248;-53
2023/12/01 08:21:00;;;;;;;11.83;7.30;;;;;;;-1.99;63.64;100525.47;5007292;28;97312;-53
2023/12/01 08:23:25;;;;;;;13.33;6.77;;;;;;;-1.97;63.54;100533.94;5006436;28;108320;-53
2023/12/01 08:25:51;;;;;;;13.00;6.70;;;;;;;-1.94;63.30;100536.97;5007136;28;98423;-53
2023/12/01 08:28:17;;;;;;;8.13;5.90;;;;;;;-1.95;62.93;100535.47;5007520;28;97247;-53
2023/12/01 08:30:43;;;;;;;11.40;7.30;;;;;;;-2.01;62.83;100538.69;5006189;28;97806;-54
2023/12/01 08:33:08;;;;;;;8.70;6.23;;;;;;;-2.05;63.23;100540.75;5006742;28;110061;-53
2023/12/01 08:35:33;;;;;;;8.50;5.70;;;;;;;-2.04;62.97;100539.56;5006544;28;96691;-53
2023/12/01 08:37:59;;;;;;;11.20;7.03;;;;;;;-2.04;63.30;100534.13;5009121;28;97050;-53
2023/12/01 08:40:24;;;;;;;9.67;5.57;;;;;;;-2.04;63.28;100539.56;5005443;28;106791;-53
2023/12/01 08:42:52;;;;;;;7.37;4.97;;;;;;;-2.03;63.00;100543.03;5005847;28;97347;-54
2023/12/01 08:45:18;;;;;;;7.90;5.97;;;;;;;-2.00;63.43;100545.66;5007109;28;96889;-53
2023/12/01 08:47:43;;;;;;;9.17;5.77;;;;;;;-1.93;63.21;100549.34;5006545;28;96998;-54
2023/12/01 08:50:10;;;;;;;9.10;6.33;;;;;;;-2.00;62.73;100559.19;5005743;28;111232;-53
2023/12/01 08:52:37;;;;;;;8.33;6.20;;;;;;;-2.04;62.83;100558.53;5006053;28;96861;-54
2023/12/01 08:55:02;;;;;;;8.90;6.00;;;;;;;-2.07;62.74;100559.41;5006714;28;96845;-53
2023/12/01 08:57:28;;;;;;;8.00;5.63;;;;;;;-2.10;63.01;100562.97;5006898;28;97098;-54
2023/12/01 08:59:53;;;;;;;9.17;6.30;;;;;;;-2.05;62.99;100561.69;5005401;28;104307;-53
2023/12/01 09:02:19;;;;;;;9.80;6.80;;;;;;;-1.99;62.93;100568.84;5003475;28;97110;-54
2023/12/01 09:04:44;;;;;;;12.77;7.20;;;;;;;-1.91;63.01;100561.28;5005537;28;97076;-53
2023/12/01 09:07:09;;;;;;;10.37;6.40;;;;;;;-1.83;63.16;100557.16;5006253;28;96816;-53
2023/12/01 09:09:35;;;;;;;13.17;6.80;;;;;;;-1.89;62.15;100558.13;5006235;28;105167;-54
2023/12/01 09:12:01;;;;;;;9.70;6.83;;;;;;;-2.04;62.40;100563.22;5005154;28;98446;-53
2023/12/01 09:14:26;;;;;;;11.10;5.57;;;;;;;-2.03;62.95;100565.47;5007926;28;99157;-54
2023/12/01 09:16:52;;;;;;;9.17;6.27;;;;;;;-2.04;63.18;100563.22;5008003;28;97224;-53
2023/12/01 09:19:17;;;;;;;10.30;6.37;;;;;;;-1.94;63.32;100561.34;5001606;28;97483;-54
2023/12/01 09:21:42;;;;;;;7.77;5.90;;;;;;;-1.87;63.06;100561.91;5004496;28;99685;-53
2023/12/01 09:24:08;;;;;;;9.13;6.47;;;;;;;-1.81;62.76;100571.03;5006675;28;97176;-53
2023/12/01 09:26:33;;;;;;;8.90;5.90;;;;;;;-1.80;62.71;100569.84;5006640;28;98240;-53
2023/12/01 09:28:58;;;;;;;9.47;6.43;;;;;;;-1.90;62.26;100573.63;5005712;28;98174;-53
2023/12/01 09:31:24;;;;;;;11.27;6.33;;;;;;;-1.92;62.98;100569.81;5005231;28;97650;-53
2023/12/01 09:33:49;;;;;;;8.13;6.10;;;;;;;-1.82;62.97;100563.34;5005743;28;97133;-53
2023/12/01 09:36:17;;;;;;;10.17;6.17;;;;;;;-1.78;62.60;100572.88;5006994;28;96960;-55
2023/12/01 09:38:49;;;;;;;9.40;6.77;;;;;;;-1.91;62.27;100561.28;5005225;28;97403;-53
2023/12/01 09:41:17;;;;;;;10.13;6.63;;;;;;;-1.93;62.41;100573.72;5005580;28;97305;-53
2023/12/01 09:43:47;;;;;;;9.40;7.30;;;;;;;-2.00;62.48;100570.03;5004538;28;97149;-53
2023/12/01 09:46:12;;;;;;;9.90;6.70;;;;;;;-2.04;62.77;100582.91;5004882;28;96915;-53
2023/12/01 09:48:40;;;;;;;9.97;6.33;;;;;;;-2.02;62.89;100580.56;5003677;28;97518;-53
2023/12/01 09:51:07;;;;;;;8.77;6.70;;;;;;;-1.93;62.86;100584.56;5004182;28;97241;-53
2023/12/01 09:53:33;;;;;;;8.43;5.63;;;;;;;-1.90;62.93;100580.97;5004584;28;97139;-53
2023/12/01 09:56:00;;;;;;;6.90;5.33;;;;;;;-1.90;62.55;100573.63;5005068;28;96821;-53
2023/12/01 09:58:26;;;;;;;9.20;6.30;;;;;;;-1.82;62.99;100568.75;5004301;28;98518;-53
2023/12/01 10:00:52;;;;;;;7.67;5.77;;;;;;;-1.74;62.68;100576.25;5004338;28;97644;-53
2023/12/01 10:03:17;;;;;;;12.23;6.43;;;;;;;-1.67;62.77;100570.59;5005485;28;97068;-53
2023/12/01 10:05:43;;;;;;;6.90;5.70;;;;;;;-1.68;62.25;100571.03;5004001;28;96709;-53
2023/12/01 10:08:09;;;;;;;7.30;5.67;;;;;;;-1.71;62.31;100580.03;5005021;28;97051;-54
2023/12/01 10:10:34;;;;;;;8.50;6.20;;;;;;;-1.69;62.22;100583.09;5004380;28;97443;-53
2023/12/01 10:13:07;;;;;;;9.10;5.70;;;;;;;-1.63;62.62;100579.38;5003391;28;97112;-53
2023/12/01 10:15:38;;;;;;;8.30;5.90;;;;;;;-1.55;62.56;100588.81;5003422;28;97012;-53
2023/12/01 10:18:11;;;;;;;8.03;6.17;;;;;;;-1.49;62.44;100584.38;5003710;28;97416;-53
2023/12/01 10:20:41;;;;;;;10.10;5.83;;;;;;;-1.43;62.37;100592.72;5002491;28;98493;-53
2023/12/01 10:23:18;;;;;;;8.33;6.23;;;;;;;-1.41;62.14;100576.78;5004101;28;97264;-53
2023/12/01 10:25:51;;;;;;;8.40;5.80;;;;;;;-1.47;61.97;100583.94;5005492;28;97243;-53
2023/12/01 10:28:17;;;;;;;7.77;5.50;;;;;;;-1.48;62.07;100583.19;5005120;28;97335;-54
2023/12/01 10:30:57;;;;;;;8.10;6.40;;;;;;;-1.44;61.96;100575.69;5006003;28;97141;-53
2023/12/01 10:33:25;;;;;;;6.63;5.27;;;;;;;-1.35;62.42;100569.59;5003605;28;96919;-53
2023/12/01 10:36:02;;;;;;;8.77;5.90;;;;;;;-1.23;62.22;100572.28;5005810;28;97235;-53
2023/12/01 10:38:29;;;;;;;8.93;6.47;;;;;;;-1.14;62.59;100563.47;5004577;28;98474;-54
2023/12/01 10:40:55;;;;;;;7.77;6.37;;;;;;;-1.08;62.56;100563.69;5005832;28;98666;-53
2023/12/01 10:43:26;;;;;;;8.53;6.70;;;;;;;-1.06;62.21;100559.34;5004450;28;96744;-53
2023/12/01 10:45:52;;;;;;;6.73;5.60;;;;;;;-1.04;62.65;100565.09;5003655;28;97278;-54
2023/12/01 10:48:19;;;;;;;7.90;6.30;;;;;;;-1.01;62.40;100566.91;5005774;28;97963;-53
2023/12/01 10:50:47;;;;;;;8.40;6.50;;;;;;;-0.96;62.46;100573.75;5004882;28;97588;-53
2023/12/01 10:53:14;;;;;;;8.07;5.87;;;;;;;-0.95;62.46;100567.91;5005198;28;97200;-54
2023/12/01 10:55:49;;;;;;;6.57;5.20;;;;;;;-0.90;62.41;100575.47;5005586;28;97107;-53
2023/12/01 10:58:24;;;;;;;5.90;5.20;;;;;;;-0.84;62.28;100578.41;5004953;28;96792;-53
2023/12/01 11:00:50;;;;;;;6.80;5.37;;;;;;;-0.82;62.26;100574.03;5004157;28;97954;-53
2023/12/01 11:03:22;;;;;;;11.43;5.67;;;;;;;-0.81;62.33;100574.78;5004607;28;97154;-53
2023/12/01 11:06:01;;;;;;;8.20;5.90;;;;;;;-0.82;62.21;100576.00;5005194;28;97829;-53
2023/12/01 11:08:59;;;;;;;7.60;5.60;;;;;;;-0.82;61.88;100582.19;5005288;28;98568;-53
2023/12/01 11:11:50;;;;;;;8.23;4.90;;;;;;;-0.81;61.91;100574.78;5006400;28;97022;-53
2023/12/01 11:14:17;;;;;;;6.10;5.00;;;;;;;-0.80;62.21;100573.59;5005339;28;96635;-53
2023/12/01 11:16:43;;;;;;;6.43;5.30;;;;;;;-0.76;62.33;100566.09;5006370;28;96781;-54